Time;durP1;ratioP1;P1;durP2;ratioP2;P2;SDS_P1;SDS_P2;PMS_P1;PMS_P2;Temp;Humidity;BMP_temperature;BMP_pressure;BME280_temperature;BME280_humidity;BME280_pressure;Samples;Min_cycle;Max_cycle;Signal;HPM_P1;HPM_P2
2023/04/29 15:07:47;;;;;;;5.97;1.27;;;;;;;14.88;75.39;101032.97;4703792;27;9086422;-78
2023/04/29 15:10:15;;;;;;;1.65;1.05;;;;;;;14.95;74.88;101038.28;5005925;28;20500;-77
2023/04/29 15:12:44;;;;;;;1.30;1.20;;;;;;;15.02;74.63;101042.72;5005198;28;20513;-79
2023/04/29 15:15:12;;;;;;;5.78;1.80;;;;;;;15.08;74.21;101037.63;5002009;28;20050;-80
2023/04/29 15:17:41;;;;;;;3.67;1.15;;;;;;;15.15;73.73;101041.22;4990981;28;20051;-76
2023/04/29 15:20:11;;;;;;;2.75;1.63;;;;;;;15.23;73.17;101043.09;5018062;28;20589;-77
2023/04/29 15:22:41;;;;;;;3.38;1.50;;;;;;;15.27;72.14;101034.44;5005044;28;20057;-78
2023/04/29 15:25:11;;;;;;;3.85;1.73;;;;;;;15.34;73.84;101037.13;5004952;28;20472;-83
2023/04/29 15:27:39;;;;;;;4.63;1.42;;;;;;;15.43;72.58;101037.25;5006257;28;20046;-82
2023/04/29 15:30:09;;;;;;;4.38;1.42;;;;;;;15.49;71.38;101034.75;5006199;28;20641;-77
2023/04/29 15:32:38;;;;;;;1.95;1.02;;;;;;;15.54;70.59;101032.22;5002536;28;20042;-78
2023/04/29 15:35:07;;;;;;;3.45;1.17;;;;;;;15.80;70.24;101030.81;4998535;28;20056;-80
2023/04/29 15:37:36;;;;;;;6.22;1.50;;;;;;;17.22;64.72;101026.97;5006018;28;20073;-79
2023/04/29 15:40:08;;;;;;;3.10;1.65;;;;;;;17.79;61.63;101030.78;5017391;28;20407;-78
2023/04/29 15:42:37;;;;;;;3.28;1.83;;;;;;;17.88;60.89;101040.44;5004236;28;20057;-78
2023/04/29 15:45:07;;;;;;;5.32;1.85;;;;;;;18.21;58.49;101035.34;5007113;28;20054;-79
2023/04/29 15:47:41;;;;;;;4.75;1.75;;;;;;;18.77;54.90;101030.19;5004120;28;20417;-76
2023/04/29 15:50:10;;;;;;;6.22;1.73;;;;;;;18.75;55.37;101034.53;5001797;28;20554;-78
2023/04/29 15:52:39;;;;;;;3.10;1.80;;;;;;;18.78;54.98;101030.22;5006274;28;20092;-79
2023/04/29 15:55:21;;;;;;;4.85;1.55;;;;;;;18.87;55.52;101031.06;5005892;28;20050;-80
2023/04/29 15:57:50;;;;;;;5.78;1.95;;;;;;;18.87;53.47;101017.94;4999721;28;20057;-76
2023/04/29 16:00:19;;;;;;;4.20;1.52;;;;;;;18.91;53.44;101025.81;5006547;28;20053;-78
2023/04/29 16:02:47;;;;;;;3.80;1.70;;;;;;;18.82;51.79;101029.31;4992254;28;20468;-80
2023/04/29 16:05:16;;;;;;;4.53;1.40;;;;;;;18.83;53.12;101030.22;4988516;28;20492;-80
2023/04/29 16:07:45;;;;;;;4.20;1.60;;;;;;;18.89;52.93;101024.94;4968825;28;20047;-78
2023/04/29 16:10:13;;;;;;;3.72;1.50;;;;;;;18.91;52.00;101023.19;4980654;28;20097;-80
2023/04/29 16:12:44;;;;;;;4.93;1.60;;;;;;;19.00;53.25;101023.19;4986703;28;20046;-80
2023/04/29 16:15:12;;;;;;;4.30;1.38;;;;;;;19.13;52.21;101021.44;4975427;28;20485;-78
2023/04/29 16:17:41;;;;;;;1.88;1.23;;;;;;;19.26;51.41;101024.91;4975841;28;20051;-78
2023/04/29 16:20:11;;;;;;;2.28;1.17;;;;;;;19.38;50.90;101024.88;4977932;28;20098;-78
2023/04/29 16:22:39;;;;;;;4.38;1.70;;;;;;;19.52;51.31;101019.59;4974382;28;20101;-78
2023/04/29 16:25:09;;;;;;;3.63;1.55;;;;;;;19.63;49.67;101014.28;4974152;28;20078;-78
2023/04/29 16:27:38;;;;;;;4.82;1.52;;;;;;;19.71;48.94;101023.06;4974421;28;20064;-78
2023/04/29 16:30:09;;;;;;;4.20;1.70;;;;;;;19.77;49.18;101023.03;4975120;28;20039;-78
2023/04/29 16:32:40;;;;;;;4.83;1.57;;;;;;;19.82;49.83;101026.50;4974068;28;20050;-80
2023/04/29 16:35:09;;;;;;;2.67;1.50;;;;;;;19.90;49.36;101025.59;4975036;28;20296;-78
2023/04/29 16:37:47;;;;;;;4.30;1.52;;;;;;;20.02;48.96;101026.44;4974064;28;20493;-82
2023/04/29 16:40:15;;;;;;;4.10;1.23;;;;;;;20.09;49.18;101022.88;4973580;28;20047;-78
2023/04/29 16:42:44;;;;;;;5.60;1.95;;;;;;;20.21;48.25;101023.69;4974316;28;20055;-78
2023/04/29 16:45:15;;;;;;;4.93;1.95;;;;;;;20.32;50.08;101026.22;4973053;28;20059;-78
2023/04/29 16:47:43;;;;;;;4.15;1.58;;;;;;;20.43;49.22;101019.16;4974783;28;20059;-77
2023/04/29 16:50:13;;;;;;;5.00;1.67;;;;;;;20.61;47.90;101019.06;4973000;28;20047;-77
2023/04/29 16:52:42;;;;;;;4.63;1.50;;;;;;;20.79;47.66;101017.16;4974185;28;20054;-76
2023/04/29 16:55:13;;;;;;;3.20;1.60;;;;;;;20.97;47.36;101017.00;4971454;28;20812;-76
2023/04/29 16:57:49;;;;;;;5.27;1.77;;;;;;;21.15;47.32;101015.09;4962916;28;20055;-79
2023/04/29 17:00:52;;;;;;;4.10;1.60;;;;;;;21.31;47.54;101012.28;4974409;28;20284;-77
2023/04/29 17:03:24;;;;;;;;;;;;;;;21.52;47.11;101018.22;4970385;28;20516;-78
2023/04/29 17:06:24;;;;;;;8.38;1.85;;;;;;;21.70;45.60;101023.28;4979163;28;20000;-79
2023/04/29 17:08:52;;;;;;;4.40;1.95;;;;;;;21.79;44.58;101021.44;4971622;28;20074;-78
2023/04/29 17:11:21;;;;;;;4.57;1.98;;;;;;;21.88;44.95;101022.19;4962693;28;20472;-78
2023/04/29 17:13:50;;;;;;;6.30;1.83;;;;;;;22.05;44.12;101028.97;4967611;28;20054;-81
2023/04/29 17:16:18;;;;;;;4.10;1.80;;;;;;;22.21;42.89;101016.47;4968180;28;20058;-76
2023/04/29 17:18:48;;;;;;;5.43;1.98;;;;;;;22.48;43.89;101023.13;4966226;28;20493;-79
2023/04/29 17:21:21;;;;;;;4.82;1.60;;;;;;;22.82;44.27;101020.81;4973737;28;20049;-76
2023/04/29 17:24:22;;;;;;;;;;;;;;;;;;;;;
2023/04/29 17:26:51;;;;;;;3.63;1.70;;;;;;;23.58;42.93;101005.34;4974026;28;20058;-77
2023/04/29 17:29:20;;;;;;;7.00;1.75;;;;;;;23.90;40.86;101014.38;4973217;28;20146;-77
2023/04/29 17:32:16;;;;;;;4.50;1.80;;;;;;;24.15;39.68;101013.84;4965681;28;20106;-76
2023/04/29 17:34:46;;;;;;;4.57;1.58;;;;;;;24.41;40.77;101011.47;4964228;28;20066;-76
2023/04/29 17:37:16;;;;;;;6.82;1.65;;;;;;;24.66;39.75;101006.47;4973868;28;20047;-75
2023/04/29 17:39:45;;;;;;;3.72;1.80;;;;;;;25.00;38.98;101004.75;4956424;28;20090;-77
2023/04/29 17:42:39;;;;;;;5.38;2.17;;;;;;;25.26;37.58;101002.28;4968772;28;20043;-78
2023/04/29 17:45:09;;;;;;;4.38;1.60;;;;;;;25.39;37.78;100996.66;4970319;28;20102;-77
2023/04/29 17:47:46;;;;;;;4.10;1.90;;;;;;;25.52;35.51;100992.75;4964263;28;20500;-78
2023/04/29 17:50:16;;;;;;;3.28;1.63;;;;;;;25.64;36.13;100980.94;4960785;28;20054;-75
2023/04/29 17:52:45;;;;;;;3.38;1.48;;;;;;;25.80;36.56;100984.00;4965830;28;20513;-77
2023/04/29 17:55:13;;;;;;;4.43;1.73;;;;;;;25.99;37.34;100982.53;4958645;28;20141;-78
2023/04/29 17:57:42;;;;;;;4.32;1.73;;;;;;;26.08;35.02;100987.53;4973690;28;20051;-76
2023/04/29 18:00:12;;;;;;;4.13;1.65;;;;;;;26.27;37.01;100981.66;4971834;28;20047;-76
2023/04/29 18:02:41;;;;;;;5.60;1.55;;;;;;;26.52;37.15;100977.28;4965604;28;20051;-76
2023/04/29 18:05:09;;;;;;;2.47;1.65;;;;;;;26.35;35.75;100973.47;4964641;28;20043;-75
2023/04/29 18:07:40;;;;;;;3.50;1.58;;;;;;;26.55;35.33;100976.38;4987866;28;20055;-76
2023/04/29 18:10:09;;;;;;;3.05;1.38;;;;;;;26.79;33.76;100969.34;4973190;28;20113;-77
2023/04/29 18:12:38;;;;;;;3.70;1.60;;;;;;;26.97;35.65;100977.59;4972398;28;20484;-77
2023/04/29 18:15:08;;;;;;;5.13;1.58;;;;;;;27.07;34.89;100968.38;4973129;28;20058;-75
2023/04/29 18:17:37;;;;;;;3.53;1.58;;;;;;;27.23;33.66;100958.94;4972912;28;20054;-78
2023/04/29 18:20:06;;;;;;;4.75;1.55;;;;;;;27.39;34.94;100964.56;4972686;28;20054;-80
2023/04/29 18:22:35;;;;;;;3.95;1.55;;;;;;;27.22;32.56;100953.72;4970464;28;20042;-78
2023/04/29 18:25:06;;;;;;;7.68;1.73;;;;;;;27.02;32.47;100954.41;4972679;28;20150;-79
2023/04/29 18:27:35;;;;;;;3.07;1.60;;;;;;;27.07;33.87;100950.63;4968732;28;20110;-79
2023/04/29 18:30:04;;;;;;;3.35;1.58;;;;;;;27.35;35.39;100952.31;4972793;28;20046;-78
2023/04/29 18:32:32;;;;;;;5.25;1.67;;;;;;;27.54;32.48;100944.53;4970756;28;20051;-78
2023/04/29 18:35:02;;;;;;;2.90;1.70;;;;;;;27.60;32.65;100944.28;4972660;28;20074;-78
2023/04/29 18:37:31;;;;;;;4.57;1.63;;;;;;;27.74;32.53;100938.44;4971209;28;20130;-78
2023/04/29 18:39:59;;;;;;;2.22;1.40;;;;;;;27.81;30.70;100934.63;4971519;28;20137;-77
2023/04/29 18:42:30;;;;;;;4.03;1.30;;;;;;;27.85;31.31;100936.25;4971105;28;20051;-78
2023/04/29 18:44:58;;;;;;;6.82;1.45;;;;;;;27.79;30.61;100932.00;4974960;28;20441;-78
2023/04/29 18:47:27;;;;;;;4.53;1.67;;;;;;;27.57;30.14;100936.44;4971665;28;20051;-80
2023/04/29 18:49:55;;;;;;;4.55;1.50;;;;;;;27.49;30.46;100931.41;4971426;28;20122;-82
2023/04/29 18:52:24;;;;;;;3.22;1.45;;;;;;;27.57;31.37;100931.13;4967719;28;20051;-76
2023/04/29 18:54:53;;;;;;;7.07;1.60;;;;;;;27.52;32.61;100925.97;4972358;28;20073;-77
2023/04/29 18:57:21;;;;;;;3.75;1.40;;;;;;;27.76;32.38;100926.81;4962811;28;20564;-77
2023/04/29 18:59:52;;;;;;;4.82;1.48;;;;;;;28.18;33.28;100923.38;4971531;28;20081;-79
2023/04/29 19:02:20;;;;;;;4.65;1.90;;;;;;;28.52;32.23;100914.03;4972313;28;20496;-78
2023/04/29 19:04:49;;;;;;;4.35;1.33;;;;;;;28.72;32.23;100918.47;4968661;28;20536;-76
2023/04/29 19:07:30;;;;;;;4.25;1.58;;;;;;;28.98;31.97;100928.00;4985642;28;20057;-76
2023/04/29 19:09:58;;;;;;;;;;;;;;;29.23;31.70;100918.94;4972943;28;20129;-76
2023/04/29 19:12:27;;;;;;;3.78;1.60;;;;;;;29.54;30.90;100917.50;4971842;28;19922;-74
2023/04/29 19:14:57;;;;;;;5.13;1.38;;;;;;;29.79;31.07;100918.06;4980637;28;20074;-76
2023/04/29 19:17:26;;;;;;;6.43;1.50;;;;;;;30.00;30.84;100909.97;4972714;28;20146;-75
2023/04/29 19:19:54;;;;;;;5.32;1.80;;;;;;;30.14;29.94;100904.78;4953249;28;20051;-76
2023/04/29 19:22:23;;;;;;;5.80;2.00;;;;;;;30.27;29.13;100907.75;4963631;28;20130;-76
2023/04/29 19:24:52;;;;;;;5.38;1.50;;;;;;;30.33;29.64;100906.56;4959762;28;20047;-74
2023/04/29 19:27:21;;;;;;;2.80;1.35;;;;;;;30.49;28.45;100894.19;4971306;28;20105;-74
2023/04/29 19:29:49;;;;;;;5.55;1.25;;;;;;;30.51;28.18;100894.94;4965422;28;20058;-77
2023/04/29 19:32:20;;;;;;;5.05;1.40;;;;;;;30.57;26.19;100894.63;4964629;28;20038;-75
2023/04/29 19:34:49;;;;;;;3.47;1.30;;;;;;;30.55;25.74;100895.66;4959282;28;20130;-77
2023/04/29 19:37:17;;;;;;;4.53;1.17;;;;;;;30.48;27.64;100895.13;4970398;28;20090;-76
2023/04/29 19:39:46;;;;;;;6.40;1.30;;;;;;;30.54;27.68;100888.63;4959909;28;20504;-78
2023/04/29 19:42:15;;;;;;;10.13;1.40;;;;;;;30.50;26.73;100885.22;4970796;28;20424;-78
2023/04/29 19:44:43;;;;;;;4.82;1.73;;;;;;;30.54;27.64;100884.13;4971204;28;20050;-77
2023/04/29 19:47:12;;;;;;;6.90;1.40;;;;;;;30.71;26.34;100890.41;4972217;28;20082;-76
2023/04/29 19:49:42;;;;;;;5.10;1.30;;;;;;;30.84;28.23;100886.13;4973063;28;20051;-77
2023/04/29 19:52:11;;;;;;;2.50;1.40;;;;;;;30.86;27.10;100878.94;4969658;28;20050;-78
2023/04/29 19:54:40;;;;;;;2.40;1.20;;;;;;;30.89;22.56;100884.97;4966430;28;20087;-77
2023/04/29 19:57:08;;;;;;;6.18;1.30;;;;;;;30.81;24.50;100881.81;4971036;28;20464;-78
2023/04/29 19:59:37;;;;;;;6.47;1.40;;;;;;;30.74;25.66;100876.88;4967238;28;20047;-77
2023/04/29 20:02:06;;;;;;;11.27;1.40;;;;;;;30.61;24.78;100879.34;4974969;28;20046;-78
2023/04/29 20:04:34;;;;;;;3.05;1.40;;;;;;;30.37;25.43;100876.13;4964746;28;20509;-75
2023/04/29 20:07:05;;;;;;;3.45;1.08;;;;;;;30.46;24.71;100867.63;4963785;28;20059;-78
2023/04/29 20:09:33;;;;;;;2.22;0.93;;;;;;;30.62;26.73;100865.88;4974159;28;20043;-78
2023/04/29 20:12:03;;;;;;;3.13;1.08;;;;;;;30.78;27.13;100870.41;4974408;28;20049;-80
2023/04/29 20:14:32;;;;;;;3.55;1.15;;;;;;;30.95;26.32;100865.09;4975398;28;20051;-78
2023/04/29 20:17:01;;;;;;;3.50;1.10;;;;;;;31.13;25.77;100865.91;4975051;28;20057;-76
2023/04/29 20:19:30;;;;;;;2.92;0.88;;;;;;;31.06;24.14;100860.03;4974189;28;20066;-80
2023/04/29 20:21:58;;;;;;;2.53;1.02;;;;;;;31.05;24.80;100858.28;4975084;28;20054;-78
2023/04/29 20:24:29;;;;;;;2.70;1.10;;;;;;;31.03;24.57;100852.16;4973119;28;20054;-78
2023/04/29 20:26:58;;;;;;;2.55;1.10;;;;;;;30.78;24.57;100855.25;4973607;28;20130;-75
2023/04/29 20:29:28;;;;;;;4.90;1.20;;;;;;;30.66;25.83;100845.22;4973324;28;20505;-79
2023/04/29 20:31:57;;;;;;;4.30;1.30;;;;;;;30.69;22.57;100839.72;4974647;28;20496;-82
2023/04/29 20:34:26;;;;;;;3.45;1.10;;;;;;;30.27;23.11;100839.22;4974498;28;20058;-79
2023/04/29 20:36:55;;;;;;;2.95;0.85;;;;;;;30.17;24.82;100832.63;4974443;28;20058;-81
2023/04/29 20:39:24;;;;;;;5.05;1.08;;;;;;;30.35;24.90;100833.50;4977118;28;20053;-80
2023/04/29 20:41:55;;;;;;;1.40;1.00;;;;;;;30.45;24.84;100828.53;4973988;28;20072;-81
2023/04/29 20:44:24;;;;;;;4.22;1.13;;;;;;;30.60;24.73;100814.34;4974268;28;20509;-78
2023/04/29 20:46:53;;;;;;;1.60;0.85;;;;;;;30.76;23.87;100813.53;4973715;28;20051;-79
2023/04/29 20:49:21;;;;;;;10.75;1.33;;;;;;;30.70;23.79;100812.09;4974541;28;20058;-77
2023/04/29 21:40:28;;;;;;;3.65;1.30;;;;;;;30.43;23.20;100763.69;5108878;23;19928;-77
2023/04/29 21:42:58;;;;;;;3.70;1.58;;;;;;;30.06;23.11;100752.25;4833631;29;20696;-77
2023/04/29 21:45:27;;;;;;;2.28;1.20;;;;;;;29.92;24.24;100757.44;4830445;29;20050;-81
2023/04/29 21:47:59;;;;;;;2.55;1.17;;;;;;;29.95;25.88;100754.59;4837201;29;20050;-81
2023/04/29 21:50:27;;;;;;;2.20;1.10;;;;;;;29.90;25.54;100748.66;4838087;29;20054;-77
2023/04/29 21:52:56;;;;;;;2.72;1.10;;;;;;;29.99;23.94;100745.50;4837899;29;20427;-77
2023/04/29 21:55:26;;;;;;;1.45;1.08;;;;;;;30.06;25.92;100737.09;4840625;29;20577;-79
2023/04/29 21:57:55;;;;;;;6.07;1.42;;;;;;;30.14;26.88;100733.16;4844854;29;20136;-80
2023/04/29 22:00:31;;;;;;;4.13;1.30;;;;;;;30.29;25.98;100731.53;4837267;29;20084;-81
2023/04/29 22:03:01;;;;;;;1.73;1.08;;;;;;;30.39;24.37;100735.41;4830906;29;20050;-80
2023/04/29 22:05:30;;;;;;;4.30;0.95;;;;;;;30.30;24.32;100727.91;4829002;29;20065;-78
2023/04/29 22:08:00;;;;;;;2.97;1.13;;;;;;;30.38;25.63;100723.88;4832873;29;20519;-77
2023/04/29 22:10:30;;;;;;;5.32;1.02;;;;;;;30.46;25.11;100720.78;4849897;29;20059;-76
2023/04/29 22:12:59;;;;;;;2.45;1.23;;;;;;;30.50;22.76;100722.34;4837118;29;20561;-81
2023/04/29 22:15:28;;;;;;;3.83;1.45;;;;;;;30.31;24.75;100718.97;4833406;29;20169;-80
2023/04/29 22:17:56;;;;;;;1.95;1.17;;;;;;;30.32;24.86;100715.34;4836380;29;20066;-83
2023/04/29 22:20:25;;;;;;;2.60;1.00;;;;;;;30.31;23.78;100710.97;4834756;29;20057;-82
2023/04/29 22:22:54;;;;;;;5.18;1.10;;;;;;;30.23;23.83;100709.50;4849054;29;20377;-77
2023/04/29 22:25:23;;;;;;;5.32;1.20;;;;;;;30.29;23.94;100710.19;4845387;29;20136;-81
2023/04/29 22:27:53;;;;;;;3.80;0.98;;;;;;;30.37;23.48;100683.91;4842010;29;20531;-78
2023/04/29 22:30:23;;;;;;;4.57;1.63;;;;;;;30.39;24.55;100698.91;4846854;29;20056;-79
2023/04/29 22:32:51;;;;;;;4.40;1.20;;;;;;;30.22;23.94;100691.78;4837181;29;20296;-84
2023/04/29 22:35:20;;;;;;;2.45;1.08;;;;;;;30.07;24.93;100682.78;4838515;29;20244;-83
2023/04/29 22:37:48;;;;;;;2.90;1.15;;;;;;;30.02;24.44;100678.63;4854281;29;20075;-81
2023/04/29 22:40:17;;;;;;;3.13;1.25;;;;;;;29.98;23.78;100677.06;4842944;29;20054;-81
2023/04/29 22:42:46;;;;;;;4.10;1.38;;;;;;;29.53;24.64;100671.34;4840515;29;20089;-80
2023/04/29 22:45:16;;;;;;;4.07;1.35;;;;;;;29.44;24.66;100672.69;4842044;29;20042;-78
2023/04/29 22:47:45;;;;;;;4.43;1.23;;;;;;;29.32;24.73;100673.31;4839093;29;20053;-81
2023/04/29 22:50:13;;;;;;;3.47;1.10;;;;;;;29.30;25.95;100663.63;4840760;29;20523;-79
2023/04/29 22:52:42;;;;;;;3.85;1.45;;;;;;;29.37;27.07;100665.94;4834229;29;20065;-82
2023/04/29 22:55:11;;;;;;;6.20;1.17;;;;;;;29.37;25.91;100660.59;4833514;29;20084;-80
2023/04/29 22:57:39;;;;;;;2.70;1.00;;;;;;;29.23;25.85;100655.97;4845087;29;20054;-78
2023/04/29 23:00:09;;;;;;;3.30;1.10;;;;;;;29.16;26.84;100645.69;4837024;29;20077;-84
2023/04/29 23:02:40;;;;;;;1.90;0.95;;;;;;;29.26;26.06;100644.28;4837874;29;20132;-80
2023/04/29 23:05:09;;;;;;;2.90;1.40;;;;;;;29.39;26.11;100639.19;4836221;29;20050;-73
2023/04/29 23:07:37;;;;;;;3.75;0.98;;;;;;;29.49;26.02;100639.59;4842945;29;20049;-76
2023/04/29 23:10:06;;;;;;;2.97;1.70;;;;;;;29.49;25.40;100639.59;4845307;29;20058;-77
2023/04/29 23:12:35;;;;;;;3.38;1.00;;;;;;;29.34;26.54;100634.09;4845598;29;20097;-77
2023/04/29 23:15:05;;;;;;;6.07;1.60;;;;;;;29.30;27.09;100637.88;4831423;29;20057;-76
2023/04/29 23:17:36;;;;;;;2.70;1.65;;;;;;;29.30;26.81;100631.66;4838689;29;20133;-76
2023/04/29 23:20:08;;;;;;;1.90;1.10;;;;;;;29.28;25.62;100622.91;4847128;29;20056;-79
2023/04/29 23:22:37;;;;;;;2.97;1.10;;;;;;;29.30;26.61;100624.56;4840491;29;20101;-80
2023/04/29 23:25:06;;;;;;;4.13;1.80;;;;;;;29.29;26.92;100625.47;4839271;29;20061;-75
2023/04/29 23:27:35;;;;;;;5.05;1.40;;;;;;;29.31;27.58;100618.28;4829788;29;20141;-74
2023/04/29 23:30:03;;;;;;;4.82;1.33;;;;;;;29.35;27.10;100622.50;4832977;29;20054;-81
2023/04/29 23:32:32;;;;;;;4.57;1.40;;;;;;;29.43;26.50;100628.28;4829641;29;20069;-82
2023/04/29 23:35:01;;;;;;;5.22;1.20;;;;;;;29.55;26.66;100615.28;4836117;29;20132;-80
2023/04/29 23:37:31;;;;;;;1.70;1.05;;;;;;;29.58;26.84;100615.13;4842585;29;20486;-78
2023/04/29 23:40:00;;;;;;;6.38;1.63;;;;;;;29.58;26.33;100610.66;4845914;29;20053;-81
2023/04/29 23:42:28;;;;;;;5.55;1.20;;;;;;;29.37;26.79;100607.31;4843645;29;20049;-76
2023/04/29 23:44:57;;;;;;;2.10;1.50;;;;;;;29.31;26.54;100601.44;4830178;29;20129;-77
2023/04/29 23:47:26;;;;;;;4.65;1.40;;;;;;;29.26;26.69;100593.66;4841278;29;20069;-76
2023/04/29 23:49:54;;;;;;;1.75;1.00;;;;;;;29.27;27.67;100590.03;4852537;29;20129;-80
2023/04/29 23:52:23;;;;;;;3.28;1.05;;;;;;;29.21;27.33;100571.72;4846523;29;20113;-79
2023/04/29 23:54:53;;;;;;;2.47;1.20;;;;;;;29.20;28.89;100576.16;4849514;29;20054;-77
2023/04/29 23:57:22;;;;;;;3.55;0.95;;;;;;;29.18;28.24;100574.53;4850187;29;20054;-76
2023/04/29 23:59:51;;;;;;;3.20;1.30;;;;;;;29.18;26.67;100571.88;4846392;29;20053;-79
